Portada
METAR-TAF:

METAR-TAF

Aeroports :

Waterloo, Iowa, Estats Units d'Amèrica

latitud: 42-33-16N, longitud: 092-24-04W, altitud: 266 m

Observació

L'informe es va fer fa 19 minuts, a les 09:54 UTC
Vent calma
Temperatura -1°C
Humitat 93%
Pressió 1017 hPa
Visibilitat: 16.1 km
Cel clar

METAR: KALO 220954Z AUTO 00000KT 10SM CLR M01/M02 A3003 RMK AO2 SLP173 T10111022

Hora: 05:13 (10:13 UTC)

Pronòstic

L'informe es va fer fa 4 hores i 53 minuts, a les 05:20 UTC
Pronòstic vàlid del 22 a les 06 UTC al 23 a les 06 UTC
Vent 3 kt amb direcció variable
Visibilitat: 10 km
Cel clar
A partir de les 22 a les 1600 UTC
Vent 8 kt del Oest/Nord-Oest
Visibilitat: 10 km
Escasses núvols a una alçada de 25000 ft

TAF: KALO 220520Z 2206/2306 VRB03KT P6SM SKC FM221600 30008KT P6SM FEW250

Observacions i pronòstics meteorològics de més de 4000 aeroports (METAR i TAF).

Les estacions disponibles són els punts grocs i vermells al mapa.

Posi el ratolí al punt desitjat per veure el nom de l'estació.

Feu clic per veure les observacions i els pronòstics meteorològics.

Per canviar el mapa: feu clic els botons verds amb una creu de color negre per apropar; al botó verd amb un guió per allunyar la imatge; o en les fletxes verdes per a mapes adjacents.


METAR-TAF: